Time;durP1;ratioP1;P1;durP2;ratioP2;P2;SDS_P1;SDS_P2;PMS_P1;PMS_P2;Temp;Humidity;BMP_temperature;BMP_pressure;BME280_temperature;BME280_humidity;BME280_pressure;Samples;Min_cycle;Max_cycle;Signal;HPM_P1;HPM_P2
2023/01/06 00:00:19;;;;;;;2.35;0.90;;;23.00;54.50;;;;;;5020520;28;20476;-67
2023/01/06 00:02:45;;;;;;;2.30;1.10;;;23.00;54.50;;;;;;5021362;28;20030;-67
2023/01/06 00:05:11;;;;;;;2.40;1.00;;;23.00;54.50;;;;;;5020557;28;20045;-67
2023/01/06 00:07:38;;;;;;;2.58;0.90;;;23.00;54.50;;;;;;5017782;28;20244;-66
2023/01/06 00:10:04;;;;;;;2.55;1.10;;;23.00;54.40;;;;;;5017828;28;20033;-67
2023/01/06 00:12:29;;;;;;;2.58;1.10;;;23.00;54.40;;;;;;5021928;28;20445;-67
2023/01/06 00:14:55;;;;;;;2.05;0.98;;;23.00;54.40;;;;;;5019646;28;20026;-67
2023/01/06 00:17:21;;;;;;;1.85;0.90;;;23.00;54.30;;;;;;5020441;28;20109;-66
2023/01/06 00:19:47;;;;;;;1.92;0.98;;;23.00;54.40;;;;;;5017884;28;20390;-66
2023/01/06 00:22:12;;;;;;;1.90;0.90;;;23.00;54.40;;;;;;5021122;28;20435;-66
2023/01/06 00:24:38;;;;;;;2.13;1.00;;;23.00;54.40;;;;;;5024099;28;20042;-66
2023/01/06 00:27:04;;;;;;;2.42;1.08;;;23.00;54.30;;;;;;5022691;28;20083;-66
2023/01/06 00:29:30;;;;;;;2.45;0.90;;;23.10;54.40;;;;;;5019206;28;20030;-66
2023/01/06 00:31:59;;;;;;;1.73;1.00;;;23.10;54.40;;;;;;5017098;28;20026;-66
2023/01/06 00:34:24;;;;;;;2.40;1.10;;;23.10;54.30;;;;;;5018348;28;20036;-65
2023/01/06 00:36:50;;;;;;;1.80;1.15;;;23.10;54.30;;;;;;5015979;28;20037;-65
2023/01/06 00:39:16;;;;;;;2.08;1.02;;;23.10;54.30;;;;;;5019999;28;20556;-66
2023/01/06 00:44:25;;;;;;;2.97;1.10;;;23.10;54.20;;;;;;5020507;28;20035;-65
2023/01/06 00:46:51;;;;;;;3.10;1.20;;;23.10;54.20;;;;;;5015292;28;20030;-65
2023/01/06 00:49:17;;;;;;;2.15;1.05;;;23.10;54.20;;;;;;5019432;28;20101;-66
2023/01/06 00:51:42;;;;;;;2.50;1.10;;;23.10;54.20;;;;;;5020925;28;20177;-66
2023/01/06 00:54:10;;;;;;;3.38;1.08;;;23.20;54.30;;;;;;5018261;28;20026;-67
2023/01/06 00:56:44;;;;;;;2.15;0.98;;;23.10;54.20;;;;;;5017003;28;20034;-67
2023/01/06 00:59:12;;;;;;;2.28;1.10;;;23.10;54.20;;;;;;5019773;28;20433;-68
2023/01/06 01:01:38;;;;;;;2.28;1.00;;;23.20;54.30;;;;;;5020647;28;20481;-66
2023/01/06 01:04:05;;;;;;;1.88;1.00;;;23.20;54.30;;;;;;5018960;28;20120;-66
2023/01/06 01:06:31;;;;;;;2.17;1.10;;;23.20;54.20;;;;;;5016604;28;20147;-66
2023/01/06 01:08:58;;;;;;;1.65;0.90;;;23.20;54.20;;;;;;5017299;28;20030;-68
2023/01/06 01:14:10;;;;;;;2.45;0.90;;;23.20;54.20;;;;;;5015569;28;20087;-66
2023/01/06 01:16:36;;;;;;;2.55;1.00;;;23.20;54.20;;;;;;5018915;28;20060;-66
2023/01/06 01:19:02;;;;;;;1.80;1.00;;;23.20;54.10;;;;;;5020317;28;20068;-66
2023/01/06 01:21:27;;;;;;;1.92;1.00;;;23.20;54.20;;;;;;5024881;28;20026;-65
2023/01/06 01:23:53;;;;;;;2.47;0.95;;;23.20;54.10;;;;;;5023186;28;20431;-65
2023/01/06 01:26:18;;;;;;;2.13;1.00;;;23.20;54.10;;;;;;5023317;28;20033;-65
2023/01/06 01:28:44;;;;;;;2.28;1.27;;;23.20;54.10;;;;;;5018813;28;20033;-65
2023/01/06 01:31:11;;;;;;;1.70;0.98;;;23.20;54.10;;;;;;5021033;28;20529;-66
2023/01/06 01:33:37;;;;;;;1.80;0.90;;;23.20;54.10;;;;;;5021120;28;20026;-66
2023/01/06 01:36:12;;;;;;;3.53;0.95;;;23.20;54.10;;;;;;5022075;28;20030;-66
2023/01/06 01:38:38;;;;;;;2.33;1.02;;;23.30;54.10;;;;;;5018966;28;20083;-66
2023/01/06 01:41:04;;;;;;;2.17;1.10;;;23.30;54.10;;;;;;5020409;28;20059;-67
2023/01/06 01:44:00;;;;;;;2.22;1.05;;;23.30;54.10;;;;;;5022246;28;20450;-65
2023/01/06 01:46:28;;;;;;;1.48;0.95;;;23.30;54.10;;;;;;5017945;28;20400;-68
2023/01/06 01:48:59;;;;;;;1.88;1.00;;;23.20;54.00;;;;;;5027359;28;20037;-67
2023/01/06 01:51:30;;;;;;;2.00;1.10;;;23.30;54.10;;;;;;5022495;28;20455;-66
2023/01/06 01:54:00;;;;;;;1.40;0.82;;;23.30;54.20;;;;;;5028513;28;20516;-65
2023/01/06 01:56:29;;;;;;;1.98;0.90;;;23.30;54.10;;;;;;5035008;28;20049;-67
2023/01/06 01:58:59;;;;;;;1.35;0.80;;;23.30;54.10;;;;;;5020025;28;20099;-65
2023/01/06 02:01:25;;;;;;;1.35;0.73;;;23.30;54.00;;;;;;5022323;28;20025;-64
2023/01/06 02:03:51;;;;;;;1.52;0.77;;;23.30;54.10;;;;;;5021138;28;20053;-65
2023/01/06 02:06:20;;;;;;;1.40;0.90;;;23.30;54.10;;;;;;5021784;28;20037;-65
2023/01/06 02:09:09;;;;;;;1.17;0.80;;;23.20;54.10;;;;;;5022858;28;20124;-64
2023/01/06 02:11:36;;;;;;;1.85;1.05;;;23.20;54.10;;;;;;5021154;28;20103;-64
2023/01/06 02:14:13;;;;;;;1.42;0.80;;;23.20;54.10;;;;;;5018380;28;20025;-64
2023/01/06 02:17:10;;;;;;;1.08;0.88;;;23.20;54.10;;;;;;5023896;28;20030;-65
2023/01/06 02:19:51;;;;;;;1.35;0.75;;;23.20;54.20;;;;;;5025448;28;20041;-65
2023/01/06 02:22:47;;;;;;;1.02;0.77;;;23.10;54.20;;;;;;5023614;28;20029;-64
2023/01/06 02:25:45;;;;;;;1.75;1.02;;;23.10;54.20;;;;;;5019009;28;20108;-65
2023/01/06 02:28:32;;;;;;;1.92;0.90;;;23.00;54.20;;;;;;5020675;28;20033;-64
2023/01/06 02:31:16;;;;;;;1.10;0.70;;;23.00;54.20;;;;;;5017051;28;20546;-64
2023/01/06 02:33:42;;;;;;;1.67;1.08;;;23.00;54.30;;;;;;5019786;28;20097;-64
2023/01/06 02:36:21;;;;;;;1.27;0.73;;;23.00;54.30;;;;;;5022535;28;20034;-64
2023/01/06 02:39:05;;;;;;;1.17;0.90;;;22.90;54.30;;;;;;5019969;28;20394;-64
2023/01/06 02:41:56;;;;;;;1.10;0.95;;;22.90;54.30;;;;;;5035337;28;20369;-64
2023/01/06 02:44:40;;;;;;;1.33;0.90;;;22.90;54.40;;;;;;5021200;28;20038;-64
2023/01/06 02:47:19;;;;;;;1.80;0.90;;;22.90;54.40;;;;;;5020975;28;20029;-64
2023/01/06 02:50:09;;;;;;;1.52;0.80;;;22.90;54.40;;;;;;5017990;28;20330;-65
2023/01/06 02:52:45;;;;;;;1.75;1.00;;;22.80;54.40;;;;;;5025448;28;20029;-64
2023/01/06 02:55:30;;;;;;;0.90;0.70;;;22.80;54.50;;;;;;5024324;28;20032;-64
2023/01/06 02:58:27;;;;;;;1.40;0.70;;;22.80;54.50;;;;;;5019969;28;20088;-65
2023/01/06 03:01:01;;;;;;;1.10;0.70;;;22.70;54.50;;;;;;5030390;28;20041;-64
2023/01/06 03:03:31;;;;;;;1.50;0.82;;;22.70;54.50;;;;;;5021217;28;20105;-64
2023/01/06 03:06:02;;;;;;;1.00;0.73;;;22.70;54.50;;;;;;5021420;28;20109;-64
2023/01/06 03:08:30;;;;;;;1.38;0.80;;;22.70;54.60;;;;;;5019180;28;20079;-65
2023/01/06 03:10:57;;;;;;;1.25;0.70;;;22.60;54.60;;;;;;5021075;28;20026;-65
2023/01/06 03:13:41;;;;;;;2.67;1.00;;;22.60;54.60;;;;;;5018523;28;20847;-65
2023/01/06 03:16:07;;;;;;;1.45;0.93;;;22.60;54.70;;;;;;5020081;28;20033;-64
2023/01/06 03:18:35;;;;;;;1.73;0.90;;;22.60;54.70;;;;;;5020175;28;20366;-65
2023/01/06 03:21:04;;;;;;;1.90;1.00;;;22.60;54.70;;;;;;5032939;28;20061;-64
2023/01/06 03:23:31;;;;;;;1.27;0.80;;;22.50;54.70;;;;;;5022834;28;20119;-64
2023/01/06 03:25:57;;;;;;;2.17;1.35;;;22.50;54.70;;;;;;5023441;28;20029;-65
2023/01/06 03:28:28;;;;;;;1.65;0.85;;;22.50;54.70;;;;;;5019868;28;20392;-64
2023/01/06 03:31:25;;;;;;;1.70;0.70;;;22.50;54.70;;;;;;5018891;28;20030;-64
2023/01/06 03:34:03;;;;;;;1.50;0.90;;;22.40;54.70;;;;;;5019341;28;20436;-64
2023/01/06 03:36:53;;;;;;;1.02;0.77;;;22.40;54.80;;;;;;5021049;28;20108;-64
2023/01/06 03:39:43;;;;;;;0.90;0.70;;;22.40;54.80;;;;;;5020394;28;20033;-64
2023/01/06 03:45:13;;;;;;;1.10;0.70;;;22.40;54.80;;;;;;5021053;28;20041;-64
2023/01/06 03:47:49;;;;;;;1.25;0.73;;;22.30;54.80;;;;;;5019136;28;20038;-64
2023/01/06 03:50:24;;;;;;;2.72;1.00;;;22.30;54.90;;;;;;5020932;28;20100;-64
2023/01/06 03:53:01;;;;;;;1.10;0.77;;;22.30;54.90;;;;;;5019043;28;20036;-64
2023/01/06 03:55:32;;;;;;;1.65;0.90;;;22.30;54.90;;;;;;5019357;28;20018;-64
2023/01/06 03:57:59;;;;;;;0.98;0.70;;;22.30;55.00;;;;;;5016243;28;20144;-64
2023/01/06 04:00:34;;;;;;;1.35;0.75;;;22.20;55.00;;;;;;5021375;28;20032;-64
2023/01/06 04:03:00;;;;;;;1.00;0.70;;;22.30;55.00;;;;;;5023343;28;20133;-65
2023/01/06 04:05:27;;;;;;;1.08;0.70;;;22.20;55.00;;;;;;5022560;28;20547;-64
2023/01/06 04:07:53;;;;;;;1.30;0.82;;;22.20;55.00;;;;;;5035743;28;20080;-64
2023/01/06 04:10:21;;;;;;;1.70;0.90;;;22.20;55.60;;;;;;5018435;28;20108;-64
2023/01/06 04:12:47;;;;;;;0.98;0.60;;;22.10;55.10;;;;;;5015360;28;20121;-64
2023/01/06 04:15:17;;;;;;;1.15;0.70;;;22.20;55.10;;;;;;5016297;28;20445;-64
2023/01/06 04:17:43;;;;;;;0.90;0.70;;;22.10;55.10;;;;;;5019071;28;20520;-64
2023/01/06 04:20:13;;;;;;;1.25;0.73;;;22.10;55.10;;;;;;5018504;28;20436;-65
2023/01/06 04:22:39;;;;;;;1.25;0.80;;;22.10;55.10;;;;;;5017126;28;20534;-64
2023/01/06 04:25:05;;;;;;;1.35;0.70;;;22.10;55.20;;;;;;5020904;28;20030;-64
2023/01/06 04:27:31;;;;;;;1.15;0.68;;;22.10;55.20;;;;;;5019739;28;20029;-64
2023/01/06 04:29:57;;;;;;;1.10;0.70;;;22.00;55.20;;;;;;5017867;28;20523;-64
2023/01/06 04:32:24;;;;;;;1.02;0.70;;;22.00;55.20;;;;;;5020757;28;20535;-64
2023/01/06 04:34:50;;;;;;;1.02;0.70;;;22.00;55.30;;;;;;5017948;28;20061;-64
2023/01/06 04:37:16;;;;;;;1.08;0.82;;;22.00;55.30;;;;;;5023264;28;20029;-64
2023/01/06 04:39:41;;;;;;;1.25;0.80;;;22.00;55.30;;;;;;5018985;28;20034;-64
2023/01/06 04:42:07;;;;;;;1.25;0.80;;;22.00;55.30;;;;;;5017998;28;20026;-64
2023/01/06 04:44:32;;;;;;;1.10;0.68;;;22.00;55.40;;;;;;5021016;28;20033;-64
2023/01/06 04:46:58;;;;;;;1.08;0.70;;;22.00;55.80;;;;;;5017139;28;20059;-64
2023/01/06 04:49:24;;;;;;;1.08;0.65;;;22.00;55.40;;;;;;5019232;28;20041;-64
2023/01/06 04:51:49;;;;;;;1.88;0.73;;;21.90;55.40;;;;;;5034112;28;20540;-64
2023/01/06 04:54:15;;;;;;;0.98;0.63;;;21.90;55.90;;;;;;5020201;28;20109;-64
2023/01/06 04:56:41;;;;;;;1.35;0.80;;;21.90;55.40;;;;;;5021504;28;20018;-64
2023/01/06 04:59:06;;;;;;;1.05;0.70;;;21.90;55.40;;;;;;5020680;28;20026;-65
2023/01/06 05:01:32;;;;;;;1.95;0.75;;;21.90;55.50;;;;;;5015679;28;20065;-65
2023/01/06 05:03:58;;;;;;;1.63;0.80;;;21.80;55.50;;;;;;5017775;28;20481;-64
2023/01/06 05:06:23;;;;;;;1.15;0.70;;;21.80;55.50;;;;;;5017714;28;20036;-64
2023/01/06 05:08:49;;;;;;;0.90;0.70;;;21.80;55.50;;;;;;5022945;28;20029;-65
2023/01/06 05:11:14;;;;;;;1.33;0.70;;;21.80;55.50;;;;;;5019652;28;20443;-65
2023/01/06 05:13:40;;;;;;;1.05;0.70;;;21.80;55.50;;;;;;5017946;28;20428;-64
2023/01/06 05:16:09;;;;;;;0.93;0.80;;;21.80;55.60;;;;;;5023475;28;20054;-64
2023/01/06 05:18:34;;;;;;;0.88;0.70;;;21.80;55.60;;;;;;5021846;28;20029;-64
2023/01/06 05:21:00;;;;;;;0.98;0.68;;;21.80;55.60;;;;;;5022836;28;20025;-64
2023/01/06 05:23:26;;;;;;;1.25;0.70;;;21.80;55.60;;;;;;5022636;28;20046;-64
2023/01/06 05:25:52;;;;;;;0.93;0.60;;;21.70;55.60;;;;;;5015320;28;20038;-64
2023/01/06 05:28:18;;;;;;;1.00;0.70;;;21.70;55.60;;;;;;5017877;28;20361;-64
2023/01/06 05:30:44;;;;;;;0.80;0.60;;;21.70;55.70;;;;;;5024040;28;20106;-64
2023/01/06 05:33:10;;;;;;;1.02;0.70;;;21.70;55.60;;;;;;5022458;28;20493;-64
2023/01/06 05:35:36;;;;;;;0.65;0.60;;;21.70;55.70;;;;;;5016582;28;20156;-64
2023/01/06 05:38:01;;;;;;;1.40;0.90;;;21.70;55.70;;;;;;5015674;28;20026;-64
2023/01/06 05:40:27;;;;;;;0.73;0.60;;;21.70;55.70;;;;;;5017392;28;20034;-64
2023/01/06 05:42:54;;;;;;;0.90;0.70;;;21.70;55.70;;;;;;5017492;28;20041;-65
2023/01/06 05:45:20;;;;;;;1.02;0.70;;;21.70;55.70;;;;;;5017699;28;20396;-65
2023/01/06 05:47:45;;;;;;;0.98;0.65;;;21.70;55.80;;;;;;5017693;28;20029;-65
2023/01/06 05:50:11;;;;;;;1.20;0.60;;;21.70;55.80;;;;;;5015490;28;20076;-64
2023/01/06 05:52:37;;;;;;;2.55;0.60;;;21.60;55.80;;;;;;5014786;28;20030;-64
2023/01/06 05:55:03;;;;;;;1.25;0.65;;;21.60;55.80;;;;;;5016944;28;20025;-64
2023/01/06 05:57:32;;;;;;;0.80;0.57;;;21.60;55.80;;;;;;5020956;28;20065;-64
2023/01/06 05:59:57;;;;;;;0.80;0.70;;;21.60;55.80;;;;;;5017884;28;20053;-64
2023/01/06 06:02:23;;;;;;;1.33;0.70;;;21.60;55.80;;;;;;5021693;28;20041;-64
2023/01/06 06:04:48;;;;;;;0.80;0.60;;;21.60;55.80;;;;;;5024577;28;20026;-64
2023/01/06 06:07:14;;;;;;;0.98;0.70;;;21.60;55.80;;;;;;5016877;28;20473;-64
2023/01/06 06:09:40;;;;;;;0.90;0.63;;;21.60;55.90;;;;;;5019332;28;20369;-64
2023/01/06 06:12:06;;;;;;;1.15;0.70;;;21.50;55.80;;;;;;5022881;28;20084;-64
2023/01/06 06:14:31;;;;;;;0.82;0.60;;;21.50;55.90;;;;;;5020505;28;20084;-64
2023/01/06 06:16:57;;;;;;;0.70;0.68;;;21.50;55.90;;;;;;5022766;28;20029;-65
2023/01/06 06:19:23;;;;;;;1.15;0.70;;;21.50;55.90;;;;;;5020072;28;20466;-65
2023/01/06 06:21:48;;;;;;;0.88;0.60;;;21.50;55.90;;;;;;5022266;28;20493;-65
2023/01/06 06:24:14;;;;;;;1.25;0.70;;;21.50;55.90;;;;;;5022174;28;20523;-64
2023/01/06 06:26:39;;;;;;;1.10;0.70;;;21.50;55.90;;;;;;5020090;28;20026;-65
2023/01/06 06:29:06;;;;;;;0.85;0.55;;;21.50;55.90;;;;;;5020486;28;20854;-64
2023/01/06 06:31:32;;;;;;;1.30;0.70;;;21.50;55.90;;;;;;5022565;28;20100;-64
2023/01/06 06:34:01;;;;;;;0.47;0.47;;;21.50;56.40;;;;;;5021642;28;20033;-64
2023/01/06 06:36:28;;;;;;;0.70;0.50;;;21.50;56.00;;;;;;5020587;28;20018;-64
2023/01/06 06:38:54;;;;;;;0.88;0.70;;;21.50;56.00;;;;;;5024164;28;20026;-65
2023/01/06 06:41:21;;;;;;;1.73;0.60;;;21.50;56.00;;;;;;5021273;28;20466;-64
2023/01/06 06:43:50;;;;;;;0.80;0.60;;;21.50;56.00;;;;;;5019584;28;20366;-64
2023/01/06 06:46:17;;;;;;;1.30;0.70;;;21.40;56.50;;;;;;5022832;28;20595;-64
2023/01/06 06:48:42;;;;;;;0.93;0.70;;;21.40;56.00;;;;;;5022003;28;20123;-65
2023/01/06 06:51:10;;;;;;;0.93;0.70;;;21.40;56.00;;;;;;5019156;28;20056;-65
2023/01/06 06:53:37;;;;;;;1.00;0.70;;;21.40;56.00;;;;;;5025025;28;20716;-64
2023/01/06 06:56:04;;;;;;;0.60;0.50;;;21.40;56.00;;;;;;5018061;28;20076;-64
2023/01/06 06:58:30;;;;;;;0.65;0.63;;;21.40;56.00;;;;;;5020571;28;20041;-65
2023/01/06 07:00:55;;;;;;;0.75;0.60;;;21.40;56.00;;;;;;5022026;28;20029;-64
2023/01/06 07:03:21;;;;;;;0.68;0.57;;;21.40;56.10;;;;;;5022692;28;20038;-64
2023/01/06 07:05:49;;;;;;;0.88;0.68;;;21.40;56.00;;;;;;5023220;28;20489;-65
2023/01/06 07:08:15;;;;;;;0.73;0.60;;;21.40;56.10;;;;;;5021396;28;20486;-64
2023/01/06 07:10:40;;;;;;;0.80;0.60;;;21.40;56.10;;;;;;5017955;28;20053;-64
2023/01/06 07:13:06;;;;;;;0.63;0.50;;;21.30;56.00;;;;;;5023606;28;20029;-64
2023/01/06 07:15:32;;;;;;;0.73;0.60;;;21.40;56.10;;;;;;5017789;28;20033;-65
2023/01/06 07:18:03;;;;;;;0.52;0.50;;;21.40;56.10;;;;;;5018981;28;20034;-64
2023/01/06 07:20:30;;;;;;;0.75;0.60;;;21.30;56.10;;;;;;5019908;28;20099;-65
2023/01/06 07:22:55;;;;;;;1.20;0.73;;;21.30;56.10;;;;;;5022238;28;20108;-65
2023/01/06 07:25:21;;;;;;;1.02;0.60;;;21.30;56.10;;;;;;5019253;28;20076;-64
2023/01/06 07:27:52;;;;;;;0.73;0.70;;;21.30;56.10;;;;;;5018336;28;20028;-64
2023/01/06 07:30:17;;;;;;;0.68;0.52;;;21.30;56.10;;;;;;5023570;28;20388;-65
2023/01/06 07:32:43;;;;;;;0.65;0.52;;;21.30;56.10;;;;;;5020346;28;20025;-63
2023/01/06 07:35:09;;;;;;;0.77;0.52;;;21.30;56.10;;;;;;5025655;28;20032;-64
2023/01/06 07:37:34;;;;;;;1.05;0.70;;;21.30;56.20;;;;;;5017900;28;20030;-65
2023/01/06 07:40:00;;;;;;;1.05;0.60;;;21.30;56.20;;;;;;5022733;28;20125;-64
2023/01/06 07:42:25;;;;;;;0.73;0.60;;;21.30;56.20;;;;;;5019724;28;20500;-65
2023/01/06 07:44:51;;;;;;;0.50;0.50;;;21.30;56.20;;;;;;5019866;28;20045;-64
2023/01/06 07:47:17;;;;;;;1.17;0.80;;;21.30;56.20;;;;;;5020860;28;20509;-65
2023/01/06 07:49:42;;;;;;;1.38;0.65;;;21.30;56.20;;;;;;5026329;28;20022;-64
2023/01/06 07:52:08;;;;;;;0.70;0.60;;;21.20;56.20;;;;;;5019892;28;20427;-64
2023/01/06 07:54:33;;;;;;;1.02;0.45;;;21.20;56.70;;;;;;5019560;28;20038;-64
2023/01/06 07:56:59;;;;;;;0.82;0.60;;;21.20;56.20;;;;;;5020898;28;20022;-64
2023/01/06 07:59:25;;;;;;;1.15;0.60;;;21.20;56.30;;;;;;5021083;28;20460;-64
2023/01/06 08:01:50;;;;;;;0.80;0.60;;;21.20;56.20;;;;;;5020113;28;20029;-64
2023/01/06 08:04:16;;;;;;;0.80;0.50;;;21.20;56.30;;;;;;5020614;28;20032;-63
2023/01/06 08:06:41;;;;;;;0.85;0.70;;;21.20;56.30;;;;;;5022031;28;20422;-65
2023/01/06 08:09:07;;;;;;;0.95;0.60;;;21.20;56.30;;;;;;5019645;28;20113;-64
2023/01/06 08:11:33;;;;;;;0.80;0.60;;;21.20;56.30;;;;;;5017756;28;20018;-65
2023/01/06 08:13:58;;;;;;;0.85;0.60;;;21.20;56.30;;;;;;5019278;28;20472;-64
2023/01/06 08:16:24;;;;;;;0.75;0.63;;;21.20;56.40;;;;;;5022934;28;20124;-64
2023/01/06 08:18:50;;;;;;;0.70;0.60;;;21.20;56.40;;;;;;5016888;28;20064;-64
2023/01/06 08:21:15;;;;;;;0.77;0.60;;;21.20;56.40;;;;;;5013359;28;20032;-65
2023/01/06 08:23:41;;;;;;;0.75;0.52;;;21.20;56.40;;;;;;5021884;28;20048;-64
2023/01/06 08:26:12;;;;;;;0.50;0.40;;;21.20;56.40;;;;;;5019556;28;20113;-65
2023/01/06 08:28:38;;;;;;;1.00;0.70;;;21.20;56.40;;;;;;5018050;28;20385;-64
2023/01/06 08:31:09;;;;;;;0.80;0.60;;;21.10;56.40;;;;;;5019279;28;20479;-64
2023/01/06 08:33:34;;;;;;;0.60;0.60;;;21.10;56.40;;;;;;5018288;28;20034;-64
2023/01/06 08:36:03;;;;;;;0.50;0.47;;;21.10;56.40;;;;;;5015994;28;20022;-64
2023/01/06 08:38:29;;;;;;;0.82;0.60;;;21.10;56.40;;;;;;5019172;28;20029;-64
2023/01/06 08:40:56;;;;;;;0.82;0.60;;;21.10;56.50;;;;;;5020023;28;20033;-64
2023/01/06 08:43:22;;;;;;;0.73;0.60;;;21.10;56.50;;;;;;5022563;28;20022;-64
2023/01/06 08:45:49;;;;;;;0.70;0.60;;;21.10;56.50;;;;;;5018548;28;20079;-65
2023/01/06 08:48:14;;;;;;;0.73;0.55;;;21.10;56.50;;;;;;5022727;28;20029;-64
2023/01/06 08:50:41;;;;;;;0.60;0.50;;;21.10;56.50;;;;;;5018216;28;20064;-65
2023/01/06 08:53:07;;;;;;;0.47;0.47;;;21.10;56.50;;;;;;5020907;28;20484;-64
2023/01/06 08:55:36;;;;;;;1.05;0.60;;;21.10;56.50;;;;;;5019449;28;20057;-64
2023/01/06 08:58:01;;;;;;;1.48;0.85;;;21.10;56.50;;;;;;5017795;28;20036;-64
2023/01/06 09:00:27;;;;;;;0.45;0.45;;;21.10;56.60;;;;;;5017799;28;20069;-64
2023/01/06 09:02:53;;;;;;;0.45;0.43;;;21.10;56.50;;;;;;5019725;28;20079;-64
2023/01/06 09:05:18;;;;;;;0.55;0.55;;;21.10;56.50;;;;;;5024488;28;20029;-64
2023/01/06 09:07:44;;;;;;;0.80;0.60;;;21.10;56.60;;;;;;5018010;28;20030;-65
2023/01/06 09:10:10;;;;;;;0.63;0.50;;;21.00;56.50;;;;;;5015374;28;20061;-64
2023/01/06 09:12:36;;;;;;;0.50;0.50;;;21.00;56.60;;;;;;5026094;28;20083;-64
2023/01/06 09:15:03;;;;;;;0.68;0.43;;;21.00;56.60;;;;;;5022796;28;20029;-64
2023/01/06 09:17:29;;;;;;;0.57;0.57;;;21.00;56.60;;;;;;5015668;28;20109;-64
2023/01/06 09:19:55;;;;;;;0.82;0.57;;;21.00;56.60;;;;;;5016159;28;20106;-65
2023/01/06 09:22:20;;;;;;;0.57;0.40;;;21.00;56.60;;;;;;5026339;28;20065;-64
2023/01/06 09:24:46;;;;;;;0.85;0.60;;;21.00;56.60;;;;;;5016504;28;20975;-64
2023/01/06 09:27:11;;;;;;;0.50;0.50;;;21.00;56.60;;;;;;5019720;28;20030;-64
2023/01/06 09:29:37;;;;;;;1.00;0.60;;;21.00;56.60;;;;;;5013808;28;20438;-64
2023/01/06 09:32:03;;;;;;;0.60;0.50;;;21.00;57.10;;;;;;5017856;28;20037;-64
2023/01/06 09:34:28;;;;;;;1.15;0.60;;;21.00;56.60;;;;;;5023683;28;20064;-64
2023/01/06 09:36:54;;;;;;;0.70;0.60;;;21.00;56.60;;;;;;5017325;28;20025;-65
2023/01/06 09:39:19;;;;;;;0.60;0.50;;;21.00;56.60;;;;;;5019835;28;20048;-64
2023/01/06 09:41:51;;;;;;;0.70;0.52;;;21.00;56.60;;;;;;5022282;28;20116;-65
2023/01/06 09:44:37;;;;;;;1.35;0.70;;;21.00;56.60;;;;;;5023494;28;20048;-64
2023/01/06 09:47:02;;;;;;;1.27;0.70;;;21.00;56.70;;;;;;5022872;28;20042;-65
2023/01/06 09:49:43;;;;;;;1.08;0.68;;;20.90;56.60;;;;;;5023996;28;20389;-64
2023/01/06 09:52:16;;;;;;;1.20;0.70;;;21.00;56.70;;;;;;5020440;28;20018;-64
2023/01/06 09:55:10;;;;;;;1.35;0.80;;;21.00;56.70;;;;;;5019782;28;20036;-64
2023/01/06 09:57:42;;;;;;;1.63;0.80;;;21.00;56.70;;;;;;5024786;28;20484;-64
2023/01/06 10:00:40;;;;;;;2.30;0.90;;;21.00;56.70;;;;;;5020761;28;20048;-64
2023/01/06 10:03:15;;;;;;;2.33;1.08;;;20.90;56.60;;;;;;5025048;28;20046;-64
2023/01/06 10:06:05;;;;;;;1.63;0.73;;;20.90;56.60;;;;;;5021554;28;20029;-65
2023/01/06 10:08:45;;;;;;;1.73;0.85;;;20.90;56.70;;;;;;5021454;28;20137;-64
2023/01/06 10:11:37;;;;;;;1.73;0.93;;;20.90;56.70;;;;;;5027356;28;20026;-64
2023/01/06 10:14:38;;;;;;;2.45;0.88;;;20.90;56.80;;;;;;5023789;28;20018;-64
2023/01/06 10:17:37;;;;;;;2.22;0.80;;;20.90;56.70;;;;;;5020218;28;20118;-64
2023/01/06 10:20:24;;;;;;;2.58;1.02;;;20.90;56.80;;;;;;5024376;28;20021;-64
2023/01/06 10:23:05;;;;;;;2.80;1.20;;;20.90;56.80;;;;;;5020352;28;20128;-64
2023/01/06 10:25:40;;;;;;;3.15;1.00;;;20.90;56.80;;;;;;5019203;28;20049;-65
2023/01/06 10:28:32;;;;;;;2.35;1.10;;;20.90;56.80;;;;;;5017148;28;20025;-65
2023/01/06 10:31:02;;;;;;;3.50;1.23;;;20.90;56.80;;;;;;5017755;28;20061;-65
2023/01/06 10:33:48;;;;;;;2.92;0.98;;;20.90;56.80;;;;;;5020472;28;20033;-64
2023/01/06 10:36:16;;;;;;;2.70;1.02;;;20.90;56.80;;;;;;5019545;28;20374;-64
2023/01/06 10:38:45;;;;;;;3.00;1.20;;;20.90;56.90;;;;;;5022532;28;20034;-65
2023/01/06 10:41:21;;;;;;;;;;;20.90;56.90;;;;;;5024133;28;20435;-65
2023/01/06 10:43:46;;;;;;;3.53;1.40;;;20.90;57.00;;;;;;5022708;28;20353;-65
2023/01/06 10:46:14;;;;;;;3.70;1.30;;;20.90;57.00;;;;;;5020129;28;20030;-64
2023/01/06 10:48:40;;;;;;;3.45;1.35;;;20.80;56.90;;;;;;5022189;28;20056;-65
2023/01/06 10:51:22;;;;;;;3.35;1.15;;;20.90;57.00;;;;;;5018204;28;20044;-65
2023/01/06 10:53:48;;;;;;;4.45;1.50;;;20.90;57.10;;;;;;5019904;28;20092;-64
2023/01/06 10:56:15;;;;;;;2.72;1.10;;;20.80;57.00;;;;;;5021134;28;20043;-64
2023/01/06 10:58:51;;;;;;;2.33;1.27;;;20.90;57.10;;;;;;5037152;28;20034;-64
2023/01/06 11:01:25;;;;;;;2.92;1.13;;;20.80;57.10;;;;;;5034332;28;20030;-64
2023/01/06 11:04:05;;;;;;;3.30;1.30;;;20.80;57.10;;;;;;5016723;28;20026;-64
2023/01/06 11:06:31;;;;;;;4.47;1.23;;;20.80;57.10;;;;;;5016902;28;20485;-64
2023/01/06 11:08:57;;;;;;;3.55;1.25;;;20.80;57.20;;;;;;5019722;28;20034;-64
2023/01/06 11:11:23;;;;;;;3.90;1.08;;;20.80;57.20;;;;;;5017261;28;20841;-65
2023/01/06 11:13:59;;;;;;;3.88;1.48;;;20.80;57.20;;;;;;5018863;28;20030;-64
2023/01/06 11:16:34;;;;;;;4.13;1.42;;;20.80;57.20;;;;;;5019191;28;20033;-64
2023/01/06 11:19:03;;;;;;;3.50;1.40;;;20.80;57.30;;;;;;5020074;28;20555;-65
2023/01/06 11:21:45;;;;;;;4.25;1.40;;;20.80;57.30;;;;;;5020879;28;20030;-63
2023/01/06 11:24:23;;;;;;;4.25;1.40;;;20.80;57.30;;;;;;5021232;28;20046;-64
2023/01/06 11:27:15;;;;;;;3.30;1.27;;;20.80;57.30;;;;;;5018424;28;20033;-64
2023/01/06 11:29:41;;;;;;;3.00;1.23;;;20.80;57.40;;;;;;5022794;28;20501;-64
2023/01/06 11:32:26;;;;;;;2.85;1.40;;;20.80;57.30;;;;;;5023117;28;20041;-65
2023/01/06 11:34:59;;;;;;;3.15;1.25;;;20.80;57.30;;;;;;5027924;28;20444;-64
2023/01/06 11:37:36;;;;;;;3.45;1.45;;;20.80;57.30;;;;;;5018972;28;20022;-64
2023/01/06 11:40:26;;;;;;;3.80;1.65;;;20.80;57.40;;;;;;5019034;28;20104;-64
2023/01/06 11:43:07;;;;;;;3.63;1.60;;;20.80;57.40;;;;;;5018512;28;20026;-65
2023/01/06 11:45:45;;;;;;;3.65;1.40;;;20.80;57.40;;;;;;5018225;28;20538;-64
2023/01/06 11:48:18;;;;;;;3.40;1.23;;;20.80;57.50;;;;;;5021276;28;20084;-64
2023/01/06 11:50:57;;;;;;;3.50;1.48;;;20.80;57.70;;;;;;5018308;28;20032;-64
2023/01/06 11:53:25;;;;;;;3.97;1.50;;;20.80;57.80;;;;;;5017818;28;20036;-65
2023/01/06 11:55:58;;;;;;;3.67;1.35;;;20.80;58.00;;;;;;5022711;28;20022;-64
2023/01/06 11:58:42;;;;;;;4.45;1.63;;;20.80;58.20;;;;;;5023799;28;20057;-64
2023/01/06 12:01:28;;;;;;;6.80;1.75;;;20.80;58.40;;;;;;5018732;28;20076;-64
2023/01/06 12:04:25;;;;;;;3.85;1.55;;;20.80;58.40;;;;;;5018617;28;20034;-65
2023/01/06 12:06:58;;;;;;;4.07;1.58;;;20.70;58.30;;;;;;5018752;28;20088;-64
2023/01/06 12:09:40;;;;;;;4.90;2.00;;;20.80;58.50;;;;;;5021146;28;20087;-64
2023/01/06 12:12:08;;;;;;;4.60;1.60;;;20.70;58.50;;;;;;5017574;28;20018;-64
2023/01/06 12:14:37;;;;;;;4.30;1.70;;;20.80;58.50;;;;;;5018711;28;20022;-64
2023/01/06 12:17:36;;;;;;;4.13;1.80;;;20.80;58.60;;;;;;5019772;28;20029;-64
2023/01/06 12:20:16;;;;;;;3.83;1.70;;;20.80;58.80;;;;;;5022649;28;20539;-64
2023/01/06 12:22:57;;;;;;;3.67;1.50;;;20.80;58.70;;;;;;5016656;28;20037;-64
2023/01/06 12:25:33;;;;;;;4.97;1.52;;;20.70;58.70;;;;;;5020113;28;20061;-65
2023/01/06 12:28:08;;;;;;;3.65;1.60;;;20.70;58.60;;;;;;5017244;28;20508;-64
2023/01/06 12:30:39;;;;;;;4.68;1.80;;;20.70;58.70;;;;;;5025107;28;20369;-64
2023/01/06 12:33:21;;;;;;;3.08;1.55;;;20.70;58.60;;;;;;5017785;28;20026;-64
2023/01/06 12:35:50;;;;;;;3.35;1.52;;;20.70;58.70;;;;;;5020607;28;20021;-64
2023/01/06 12:38:30;;;;;;;4.78;1.63;;;20.70;58.70;;;;;;5015068;28;20501;-64
2023/01/06 12:41:15;;;;;;;6.45;2.00;;;20.70;58.70;;;;;;5025236;28;20029;-64
2023/01/06 12:43:50;;;;;;;3.28;1.40;;;20.70;58.70;;;;;;5015265;28;20022;-64
2023/01/06 12:46:24;;;;;;;4.03;1.70;;;20.70;58.70;;;;;;5019725;28;20039;-65
2023/01/06 12:49:04;;;;;;;3.33;1.65;;;20.70;58.70;;;;;;5032562;28;20125;-65
2023/01/06 12:51:53;;;;;;;4.45;2.00;;;20.80;59.20;;;;;;5020007;28;20030;-66
2023/01/06 12:54:29;;;;;;;6.23;2.60;;;20.90;59.50;;;;;;5016493;28;20018;-65
2023/01/06 12:57:00;;;;;;;5.60;1.98;;;21.00;59.50;;;;;;5016178;28;20349;-66
2023/01/06 12:59:48;;;;;;;4.70;2.08;;;21.10;59.40;;;;;;5034714;28;20084;-66
2023/01/06 13:02:32;;;;;;;6.32;2.60;;;21.10;59.20;;;;;;5018106;28;20033;-66
2023/01/06 13:05:15;;;;;;;6.40;2.50;;;21.20;59.10;;;;;;5018193;28;20075;-66
2023/01/06 13:08:00;;;;;;;6.60;2.10;;;21.40;58.80;;;;;;5030011;28;20425;-67
2023/01/06 13:10:35;;;;;;;6.15;2.60;;;21.50;58.70;;;;;;5020839;28;20049;-66
2023/01/06 13:13:12;;;;;;;6.03;2.58;;;21.60;58.40;;;;;;5022783;28;20026;-66
2023/01/06 13:15:41;;;;;;;6.05;2.47;;;21.60;58.20;;;;;;5018275;28;20093;-67